createdAt,value
2023-07-31T00:00:53.000Z,1005.3
2023-07-31T00:02:09.000Z,1005.3
2023-07-31T00:03:25.000Z,1005.3
2023-07-31T00:04:41.000Z,1005.3
2023-07-31T00:05:58.000Z,1005.3
2023-07-31T00:07:14.000Z,1005.3
2023-07-31T00:08:30.000Z,1005.3
2023-07-31T00:09:46.000Z,1005.2
2023-07-31T00:11:01.000Z,1005.3
2023-07-31T00:12:16.000Z,1005.2
2023-07-31T00:16:05.000Z,1005.1
2023-07-31T00:17:21.000Z,1005.1
2023-07-31T00:18:37.000Z,1005.1
2023-07-31T00:19:53.000Z,1005.1
2023-07-31T00:21:09.000Z,1005
2023-07-31T00:22:25.000Z,1005
2023-07-31T00:23:42.000Z,1005.1
2023-07-31T00:24:58.000Z,1005.2
2023-07-31T00:26:13.000Z,1005.1
2023-07-31T00:27:28.000Z,1005
2023-07-31T00:28:44.000Z,1005.1
2023-07-31T00:30:00.000Z,1005
2023-07-31T00:31:17.000Z,1005
2023-07-31T00:32:33.000Z,1005
2023-07-31T00:33:49.000Z,1004.9
2023-07-31T00:35:05.000Z,1004.9
2023-07-31T00:36:21.000Z,1004.9
2023-07-31T00:41:26.000Z,1004.9
2023-07-31T00:42:42.000Z,1004.8
2023-07-31T00:43:58.000Z,1004.8
2023-07-31T00:45:14.000Z,1004.8
2023-07-31T00:46:30.000Z,1004.8
2023-07-31T00:47:47.000Z,1004.8
2023-07-31T00:49:03.000Z,1004.7
2023-07-31T00:50:19.000Z,1004.8
2023-07-31T00:52:51.000Z,1004.7
2023-07-31T00:55:23.000Z,1004.7
2023-07-31T00:56:40.000Z,1004.7
2023-07-31T00:57:55.000Z,1004.7
2023-07-31T01:00:26.000Z,1004.7
2023-07-31T01:01:42.000Z,1004.7
2023-07-31T01:02:58.000Z,1004.7
2023-07-31T01:04:15.000Z,1004.7
2023-07-31T01:05:31.000Z,1004.8
2023-07-31T01:06:47.000Z,1004.7
2023-07-31T01:08:03.000Z,1004.7
2023-07-31T01:09:19.000Z,1004.7
2023-07-31T01:10:35.000Z,1004.6
2023-07-31T01:11:51.000Z,1004.6
2023-07-31T01:13:08.000Z,1004.6
2023-07-31T01:14:24.000Z,1004.6
2023-07-31T01:15:39.000Z,1004.6
2023-07-31T01:16:55.000Z,1004.6
2023-07-31T01:18:11.000Z,1004.6
2023-07-31T01:19:27.000Z,1004.6
2023-07-31T01:20:43.000Z,1004.6
2023-07-31T01:22:00.000Z,1004.6
2023-07-31T01:23:16.000Z,1004.6
2023-07-31T01:24:31.000Z,1004.6
2023-07-31T01:25:46.000Z,1004.6
2023-07-31T01:27:02.000Z,1004.6
2023-07-31T01:28:18.000Z,1004.5
2023-07-31T01:29:35.000Z,1004.5
2023-07-31T01:30:51.000Z,1004.5
2023-07-31T01:32:07.000Z,1004.4
2023-07-31T01:33:23.000Z,1004.4
2023-07-31T01:34:39.000Z,1004.4
2023-07-31T01:35:55.000Z,1004.3
2023-07-31T01:37:10.000Z,1004.4
2023-07-31T01:38:26.000Z,1004.4
2023-07-31T01:39:42.000Z,1004.3
2023-07-31T01:40:58.000Z,1004.3
2023-07-31T01:42:14.000Z,1004.3
2023-07-31T01:43:30.000Z,1004.3
2023-07-31T01:44:46.000Z,1004.3
2023-07-31T01:48:35.000Z,1004.2
2023-07-31T01:51:07.000Z,1004.3
2023-07-31T01:52:23.000Z,1004.1
2023-07-31T01:56:11.000Z,1004.2
2023-07-31T01:57:26.000Z,1004.2
2023-07-31T01:59:57.000Z,1004.1
2023-07-31T02:01:12.000Z,1004.1
2023-07-31T02:02:28.000Z,1004.1
2023-07-31T02:03:45.000Z,1004.1
2023-07-31T02:05:01.000Z,1004.1
2023-07-31T02:07:33.000Z,1004
2023-07-31T02:08:49.000Z,1004
2023-07-31T02:10:05.000Z,1003.9
2023-07-31T02:11:21.000Z,1004
2023-07-31T02:12:38.000Z,1004
2023-07-31T02:13:54.000Z,1003.9
2023-07-31T02:15:10.000Z,1003.9
2023-07-31T02:16:26.000Z,1003.8
2023-07-31T02:17:41.000Z,1003.9
2023-07-31T02:18:57.000Z,1003.9
2023-07-31T02:20:14.000Z,1003.9
2023-07-31T02:21:30.000Z,1003.9
2023-07-31T02:22:46.000Z,1003.9
2023-07-31T02:24:02.000Z,1003.8
2023-07-31T02:25:17.000Z,1003.8
2023-07-31T02:26:32.000Z,1003.8
2023-07-31T02:27:48.000Z,1003.8
2023-07-31T02:29:05.000Z,1003.8
2023-07-31T02:30:21.000Z,1003.8
2023-07-31T02:31:37.000Z,1003.8
2023-07-31T02:32:53.000Z,1003.7
2023-07-31T02:34:09.000Z,1003.8
2023-07-31T02:35:25.000Z,1003.8
2023-07-31T02:36:41.000Z,1003.8
2023-07-31T02:37:57.000Z,1003.7
2023-07-31T02:39:12.000Z,1003.7
2023-07-31T02:40:28.000Z,1003.8
2023-07-31T02:41:44.000Z,1003.7
2023-07-31T02:43:00.000Z,1003.7
2023-07-31T02:44:16.000Z,1003.7
2023-07-31T02:45:33.000Z,1003.7
2023-07-31T02:46:49.000Z,1003.8
2023-07-31T02:48:05.000Z,1003.7
2023-07-31T02:50:37.000Z,1003.7
2023-07-31T02:51:53.000Z,1003.7
2023-07-31T02:53:09.000Z,1003.6
2023-07-31T02:55:42.000Z,1003.6
2023-07-31T02:56:57.000Z,1003.6
2023-07-31T02:58:12.000Z,1003.6
2023-07-31T03:00:44.000Z,1003.6
2023-07-31T03:03:17.000Z,1003.5
2023-07-31T03:04:33.000Z,1003.6
2023-07-31T03:05:49.000Z,1003.6
2023-07-31T03:07:05.000Z,1003.6
2023-07-31T03:08:21.000Z,1003.6
2023-07-31T03:09:37.000Z,1003.6
2023-07-31T03:10:54.000Z,1003.6
2023-07-31T03:12:10.000Z,1003.6
2023-07-31T03:13:26.000Z,1003.5
2023-07-31T03:14:41.000Z,1003.6
2023-07-31T03:15:57.000Z,1003.6
2023-07-31T03:17:13.000Z,1003.5
2023-07-31T03:18:29.000Z,1003.6
2023-07-31T03:19:46.000Z,1003.6
2023-07-31T03:21:02.000Z,1003.6
2023-07-31T03:22:18.000Z,1003.6
2023-07-31T03:23:34.000Z,1003.5
2023-07-31T03:24:50.000Z,1003.5
2023-07-31T03:26:05.000Z,1003.5
2023-07-31T03:27:22.000Z,1003.4
2023-07-31T03:28:38.000Z,1003.5
2023-07-31T03:29:54.000Z,1003.5
2023-07-31T03:31:10.563Z,1003.5
2023-07-31T03:32:26.000Z,1003.5
2023-07-31T03:33:42.000Z,1003.5
2023-07-31T03:34:59.000Z,1003.5
2023-07-31T03:36:15.000Z,1003.5
2023-07-31T03:37:31.000Z,1003.4
2023-07-31T03:38:46.000Z,1003.4
2023-07-31T03:40:02.000Z,1003.4
2023-07-31T03:41:18.000Z,1003.4
2023-07-31T03:42:35.000Z,1003.3
2023-07-31T03:43:51.000Z,1003.3
2023-07-31T03:45:07.333Z,1003.3
2023-07-31T03:46:23.000Z,1003.3
2023-07-31T03:47:39.000Z,1003.3
2023-07-31T03:48:55.000Z,1003.3
2023-07-31T03:50:10.000Z,1003.3
2023-07-31T03:51:26.000Z,1003.4
2023-07-31T03:52:41.000Z,1003.3
2023-07-31T03:53:57.000Z,1003.3
2023-07-31T03:55:13.000Z,1003.3
2023-07-31T03:57:45.000Z,1003.3
2023-07-31T03:59:02.000Z,1003.3
2023-07-31T04:00:18.000Z,1003.4
2023-07-31T04:01:34.000Z,1003.4
2023-07-31T04:02:50.000Z,1003.3
2023-07-31T04:04:06.000Z,1003.4
2023-07-31T04:05:22.000Z,1003.3
2023-07-31T04:07:55.000Z,1003.3
2023-07-31T04:09:10.000Z,1003.3
2023-07-31T04:10:25.000Z,1003.3
2023-07-31T04:11:41.000Z,1003.3
2023-07-31T04:14:13.000Z,1003.3
2023-07-31T04:16:46.000Z,1003.2
2023-07-31T04:18:02.000Z,1003.2
2023-07-31T04:19:18.000Z,1003.1
2023-07-31T04:20:34.000Z,1003.2
2023-07-31T04:21:50.000Z,1003.2
2023-07-31T04:23:06.000Z,1003.2
2023-07-31T04:24:22.000Z,1003.1
2023-07-31T04:25:38.000Z,1003.1
2023-07-31T04:26:53.000Z,1003.1
2023-07-31T04:28:09.000Z,1003.2
2023-07-31T04:29:25.000Z,1003.2
2023-07-31T04:30:41.000Z,1003.1
2023-07-31T04:31:57.000Z,1003.1
2023-07-31T04:34:30.000Z,1003.1
2023-07-31T04:35:46.000Z,1003.1
2023-07-31T04:37:02.000Z,1003.1
2023-07-31T04:38:18.000Z,1003.1
2023-07-31T04:39:34.000Z,1003.1
2023-07-31T04:40:50.000Z,1003.1
2023-07-31T04:42:07.000Z,1003.1
2023-07-31T04:43:22.000Z,1003.1
2023-07-31T04:44:38.000Z,1003.1
2023-07-31T04:45:54.000Z,1003.1
2023-07-31T04:47:10.000Z,1003.2
2023-07-31T04:48:26.000Z,1003.2
2023-07-31T04:49:42.000Z,1003.2
2023-07-31T04:50:58.000Z,1003.1
2023-07-31T04:52:13.000Z,1003.1
2023-07-31T04:54:45.000Z,1003.1
2023-07-31T04:56:01.000Z,1003.1
2023-07-31T04:57:17.000Z,1003
2023-07-31T04:58:34.000Z,1003
2023-07-31T04:59:50.000Z,1003
2023-07-31T05:01:06.000Z,1002.9
2023-07-31T05:02:22.000Z,1002.9
2023-07-31T05:03:38.000Z,1002.9
2023-07-31T05:06:10.000Z,1002.8
2023-07-31T05:08:42.000Z,1002.8
2023-07-31T05:09:57.000Z,1002.7
2023-07-31T05:11:12.000Z,1002.7
2023-07-31T05:13:44.000Z,1002.7
2023-07-31T05:15:01.000Z,1002.6
2023-07-31T05:16:17.000Z,1002.7
2023-07-31T05:17:33.000Z,1002.6
2023-07-31T05:18:49.000Z,1002.7
2023-07-31T05:20:05.000Z,1002.7
2023-07-31T05:21:21.000Z,1002.7
2023-07-31T05:22:37.000Z,1002.8
2023-07-31T05:23:54.000Z,1002.7
2023-07-31T05:25:10.000Z,1002.7
2023-07-31T05:26:26.000Z,1002.8
2023-07-31T05:27:42.000Z,1002.7
2023-07-31T05:28:58.000Z,1002.7
2023-07-31T05:30:14.000Z,1002.8
2023-07-31T05:31:31.000Z,1002.7
2023-07-31T05:32:47.000Z,1002.7
2023-07-31T05:34:03.000Z,1002.7
2023-07-31T05:35:19.000Z,1002.8
2023-07-31T05:36:34.000Z,1002.7
2023-07-31T05:37:49.000Z,1002.7
2023-07-31T05:39:05.000Z,1002.6
2023-07-31T05:41:37.000Z,1002.6
2023-07-31T05:42:53.000Z,1002.6
2023-07-31T05:44:09.000Z,1002.6
2023-07-31T05:45:25.000Z,1002.6
2023-07-31T05:46:41.000Z,1002.6
2023-07-31T05:47:58.000Z,1002.6
2023-07-31T05:49:14.000Z,1002.6
2023-07-31T05:50:30.000Z,1002.6
2023-07-31T05:51:46.000Z,1002.6
2023-07-31T05:53:02.000Z,1002.6
2023-07-31T05:54:18.000Z,1002.6
2023-07-31T05:55:33.000Z,1002.6
2023-07-31T05:56:50.000Z,1002.6
2023-07-31T05:58:06.000Z,1002.6
2023-07-31T05:59:22.000Z,1002.6
2023-07-31T06:00:38.000Z,1002.6
2023-07-31T06:03:10.000Z,1002.5
2023-07-31T06:04:26.000Z,1002.6
2023-07-31T06:05:42.000Z,1002.5
2023-07-31T06:06:57.000Z,1002.6
2023-07-31T06:08:13.000Z,1002.4
2023-07-31T06:09:29.000Z,1002.5
2023-07-31T06:10:45.000Z,1002.5
2023-07-31T06:12:01.000Z,1002.5
2023-07-31T06:13:18.000Z,1002.5
2023-07-31T06:14:34.000Z,1002.6
2023-07-31T06:17:06.000Z,1002.6
2023-07-31T06:18:22.000Z,1002.6
2023-07-31T06:19:38.000Z,1002.5
2023-07-31T06:20:54.000Z,1002.6
2023-07-31T06:22:11.000Z,1002.6
2023-07-31T06:23:27.000Z,1002.6
2023-07-31T06:24:43.000Z,1002.6
2023-07-31T06:25:59.000Z,1002.6
2023-07-31T06:27:15.000Z,1002.6
2023-07-31T06:28:31.000Z,1002.6
2023-07-31T06:29:48.000Z,1002.7
2023-07-31T06:31:04.000Z,1002.6
2023-07-31T06:32:19.000Z,1002.6
2023-07-31T06:33:34.000Z,1002.6
2023-07-31T06:36:06.000Z,1002.6
2023-07-31T06:38:39.000Z,1002.6
2023-07-31T06:39:55.000Z,1002.6
2023-07-31T06:41:11.000Z,1002.6
2023-07-31T06:42:27.000Z,1002.6
2023-07-31T06:43:43.000Z,1002.7
2023-07-31T06:44:59.000Z,1002.8
2023-07-31T06:46:15.000Z,1002.5
2023-07-31T06:47:31.000Z,1002.6
2023-07-31T06:48:46.000Z,1002.6
2023-07-31T06:50:02.000Z,1002.6
2023-07-31T06:51:18.000Z,1002.5
2023-07-31T06:52:34.000Z,1002.5
2023-07-31T06:55:07.000Z,1002.6
2023-07-31T06:56:23.000Z,1002.5
2023-07-31T06:57:39.000Z,1002.6
2023-07-31T06:58:55.000Z,1002.7
2023-07-31T07:00:11.000Z,1002.6
2023-07-31T07:01:27.000Z,1002.6
2023-07-31T07:02:43.000Z,1002.6
2023-07-31T07:04:00.000Z,1002.6
2023-07-31T07:06:31.000Z,1002.5
2023-07-31T07:07:46.000Z,1002.6
2023-07-31T07:09:01.000Z,1002.5
2023-07-31T07:10:17.000Z,1002.5
2023-07-31T07:11:33.000Z,1002.5
2023-07-31T07:12:50.000Z,1002.4
2023-07-31T07:14:06.000Z,1002.5
2023-07-31T07:15:22.000Z,1002.5
2023-07-31T07:16:38.000Z,1002.5
2023-07-31T07:17:54.000Z,1002.5
2023-07-31T07:19:10.000Z,1002.5
2023-07-31T07:20:26.000Z,1002.6
2023-07-31T07:22:57.000Z,1002.5
2023-07-31T07:24:13.000Z,1002.6
2023-07-31T07:25:29.000Z,1002.6
2023-07-31T07:26:45.000Z,1002.6
2023-07-31T07:28:01.000Z,1002.6
2023-07-31T07:30:34.000Z,1002.4
2023-07-31T07:31:50.000Z,1002.5
2023-07-31T07:33:06.000Z,1002.5
2023-07-31T07:34:22.000Z,1002.5
2023-07-31T07:36:53.000Z,1002.5
2023-07-31T07:38:09.000Z,1002.4
2023-07-31T07:40:40.000Z,1002.4
2023-07-31T07:41:56.000Z,1002.4
2023-07-31T07:43:12.000Z,1002.3
2023-07-31T07:44:28.000Z,1002.3
2023-07-31T07:45:45.000Z,1002.3
2023-07-31T07:47:01.000Z,1002.2
2023-07-31T07:48:17.000Z,1002.2
2023-07-31T07:49:33.000Z,1002.2
2023-07-31T07:50:49.000Z,1002.3
2023-07-31T07:53:21.000Z,1002.3
2023-07-31T07:54:38.000Z,1002.2
2023-07-31T07:55:53.000Z,1002.3
2023-07-31T07:57:09.000Z,1002.3
2023-07-31T07:58:25.000Z,1002.4
2023-07-31T07:59:41.000Z,1002.2
2023-07-31T08:00:57.000Z,1002.2
2023-07-31T08:02:13.000Z,1002.1
2023-07-31T08:03:30.000Z,1002.1
2023-07-31T08:04:46.000Z,1002.1
2023-07-31T08:06:01.000Z,1002.2
2023-07-31T08:07:16.000Z,1002.2
2023-07-31T08:08:31.000Z,1002.2
2023-07-31T08:09:46.000Z,1002.1
2023-07-31T08:11:03.000Z,1002
2023-07-31T08:12:19.000Z,1002.1
2023-07-31T08:13:35.000Z,1002.2
2023-07-31T08:14:51.000Z,1002.3
2023-07-31T08:16:07.000Z,1002.5
2023-07-31T08:17:23.000Z,1002.6
2023-07-31T08:18:39.000Z,1002.3
2023-07-31T08:19:56.000Z,1002.3
2023-07-31T08:21:11.000Z,1002.2
2023-07-31T08:22:26.000Z,1002.2
2023-07-31T08:23:42.000Z,1002.3
2023-07-31T08:24:58.000Z,1002.2
2023-07-31T08:26:14.000Z,1002.3
2023-07-31T08:28:47.000Z,1002.2
2023-07-31T08:30:03.000Z,1002.2
2023-07-31T08:31:19.000Z,1002.2
2023-07-31T08:32:35.000Z,1002.2
2023-07-31T08:33:51.000Z,1002.2
2023-07-31T08:37:40.000Z,1002.2
2023-07-31T08:38:56.000Z,1002.2
2023-07-31T08:40:11.000Z,1002.2
2023-07-31T08:41:26.000Z,1002.3
2023-07-31T08:42:42.000Z,1002.2
2023-07-31T08:43:58.000Z,1002.2
2023-07-31T08:45:15.000Z,1002.3
2023-07-31T08:46:31.000Z,1002.3
2023-07-31T08:47:47.000Z,1002.3
2023-07-31T08:49:03.000Z,1002.3
2023-07-31T08:51:35.000Z,1002.3
2023-07-31T08:54:08.000Z,1002.4
2023-07-31T08:55:24.000Z,1002.3
2023-07-31T08:56:40.000Z,1002.3
2023-07-31T08:59:11.000Z,1002.3
2023-07-31T09:00:27.000Z,1002.3
2023-07-31T09:01:43.000Z,1002.3
2023-07-31T09:03:00.000Z,1002.3
2023-07-31T09:04:16.000Z,1002.3
2023-07-31T09:05:32.000Z,1002.2
2023-07-31T09:06:48.000Z,1002.2
2023-07-31T09:08:04.000Z,1002.1
2023-07-31T09:09:19.000Z,1002.2
2023-07-31T09:11:51.000Z,1002.2
2023-07-31T09:13:07.000Z,1002.3
2023-07-31T09:14:23.000Z,1002.3
2023-07-31T09:16:55.000Z,1002.2
2023-07-31T09:18:11.000Z,1002.2
2023-07-31T09:19:28.000Z,1002.2
2023-07-31T09:20:44.000Z,1002.2
2023-07-31T09:22:00.000Z,1002.2
2023-07-31T09:23:16.000Z,1002.2
2023-07-31T09:24:32.000Z,1002.3
2023-07-31T09:25:48.000Z,1002.3
2023-07-31T09:27:03.000Z,1002.1
2023-07-31T09:28:20.000Z,1002.2
2023-07-31T09:29:36.000Z,1002.2
2023-07-31T09:30:52.000Z,1002.1
2023-07-31T09:32:08.000Z,1002.1
2023-07-31T09:33:24.000Z,1002.1
2023-07-31T09:34:40.000Z,1002.1
2023-07-31T09:35:56.000Z,1002.1
2023-07-31T09:37:12.000Z,1002.1
2023-07-31T09:38:28.000Z,1002.1
2023-07-31T09:39:43.000Z,1002.1
2023-07-31T09:40:58.000Z,1002.2
2023-07-31T09:42:14.000Z,1002.2
2023-07-31T09:43:30.000Z,1002.2
2023-07-31T09:44:47.000Z,1002.2
2023-07-31T09:46:03.000Z,1002.2
2023-07-31T09:47:19.000Z,1002.3
2023-07-31T09:49:51.000Z,1002.3
2023-07-31T09:51:07.000Z,1002.3
2023-07-31T09:52:23.000Z,1002.2
2023-07-31T09:53:40.000Z,1002.3
2023-07-31T09:54:56.000Z,1002.3
2023-07-31T09:56:12.000Z,1002.2
2023-07-31T09:57:27.000Z,1002.2
2023-07-31T09:58:43.000Z,1002
2023-07-31T09:59:59.000Z,1002
2023-07-31T10:01:15.000Z,1002
2023-07-31T10:02:32.000Z,1002
2023-07-31T10:03:48.000Z,1002
2023-07-31T10:05:04.000Z,1002.1
2023-07-31T10:06:19.000Z,1002.1
2023-07-31T10:07:34.000Z,1002.1
2023-07-31T10:08:50.000Z,1002.1
2023-07-31T10:10:06.000Z,1002.2
2023-07-31T10:11:23.000Z,1002.2
2023-07-31T10:13:55.000Z,1002.1
2023-07-31T10:15:11.000Z,1002.1
2023-07-31T10:16:27.000Z,1002.1
2023-07-31T10:17:43.000Z,1002.1
2023-07-31T10:18:59.000Z,1002.1
2023-07-31T10:20:16.000Z,1002.2
2023-07-31T10:21:32.000Z,1002.2
2023-07-31T10:22:48.000Z,1002.2
2023-07-31T10:26:35.000Z,1002.2
2023-07-31T10:27:51.000Z,1002.2
2023-07-31T10:29:06.000Z,1002.3
2023-07-31T10:31:38.000Z,1002.2
2023-07-31T10:32:54.000Z,1002.2
2023-07-31T10:34:10.000Z,1002.2
2023-07-31T10:35:26.000Z,1002.2
2023-07-31T10:36:43.000Z,1002.2
2023-07-31T10:37:59.000Z,1002.2
2023-07-31T10:40:31.000Z,1002.1
2023-07-31T10:43:03.000Z,1002.2
2023-07-31T10:45:36.000Z,1002.1
2023-07-31T10:46:51.000Z,1002.1
2023-07-31T10:48:07.000Z,1002.1
2023-07-31T10:49:23.000Z,1002.1
2023-07-31T10:50:39.000Z,1002
2023-07-31T10:51:55.000Z,1002
2023-07-31T10:53:11.000Z,1002
2023-07-31T10:54:28.000Z,1002
2023-07-31T10:55:44.000Z,1002
2023-07-31T10:57:00.000Z,1002
2023-07-31T10:58:16.000Z,1002
2023-07-31T10:59:32.000Z,1002
2023-07-31T11:00:48.000Z,1002
2023-07-31T11:02:05.000Z,1002
2023-07-31T11:04:36.000Z,1002
2023-07-31T11:05:52.000Z,1002
2023-07-31T11:07:08.000Z,1002
2023-07-31T11:08:24.000Z,1001.9
2023-07-31T11:09:40.000Z,1001.9
2023-07-31T11:10:57.000Z,1001.9
2023-07-31T11:12:12.000Z,1001.9
2023-07-31T11:13:27.000Z,1001.9
2023-07-31T11:14:43.000Z,1001.9
2023-07-31T11:15:59.000Z,1001.9
2023-07-31T11:17:15.000Z,1001.8
2023-07-31T11:18:31.000Z,1001.9
2023-07-31T11:19:48.000Z,1001.8
2023-07-31T11:21:04.000Z,1001.9
2023-07-31T11:22:20.000Z,1001.9
2023-07-31T11:23:36.000Z,1001.9
2023-07-31T11:24:51.719Z,1001.8
2023-07-31T11:26:06.000Z,1001.9
2023-07-31T11:27:23.000Z,1001.9
2023-07-31T11:28:39.000Z,1001.9
2023-07-31T11:29:55.000Z,1001.8
2023-07-31T11:31:11.000Z,1001.8
2023-07-31T11:34:59.000Z,1001.8
2023-07-31T11:37:32.000Z,1001.8
2023-07-31T11:38:48.000Z,1001.8
2023-07-31T11:40:04.000Z,1001.8
2023-07-31T11:41:19.000Z,1001.7
2023-07-31T11:42:34.000Z,1001.8
2023-07-31T11:43:50.000Z,1001.8
2023-07-31T11:45:07.000Z,1001.7
2023-07-31T11:46:23.000Z,1001.8
2023-07-31T11:47:39.000Z,1001.7
2023-07-31T11:48:55.000Z,1001.7
2023-07-31T11:50:11.000Z,1001.7
2023-07-31T11:51:27.000Z,1001.7
2023-07-31T11:52:43.000Z,1001.7
2023-07-31T11:53:59.000Z,1001.6
2023-07-31T11:55:14.000Z,1001.7
2023-07-31T11:56:30.000Z,1001.6
2023-07-31T11:57:46.000Z,1001.7
2023-07-31T11:59:02.000Z,1001.7
2023-07-31T12:01:35.000Z,1001.6
2023-07-31T12:02:51.000Z,1001.6
2023-07-31T12:05:23.000Z,1001.6
2023-07-31T12:06:39.000Z,1001.5
2023-07-31T12:07:55.000Z,1001.6
2023-07-31T12:09:12.000Z,1001.6
2023-07-31T12:10:27.000Z,1001.6
2023-07-31T12:11:43.000Z,1001.6
2023-07-31T12:12:59.000Z,1001.6
2023-07-31T12:14:15.000Z,1001.6
2023-07-31T12:15:31.000Z,1001.6
2023-07-31T12:16:47.000Z,1001.6
2023-07-31T12:18:04.000Z,1001.5
2023-07-31T12:19:20.000Z,1001.5
2023-07-31T12:20:36.000Z,1001.5
2023-07-31T12:21:51.000Z,1001.6
2023-07-31T12:23:06.000Z,1001.6
2023-07-31T12:24:22.000Z,1001.6
2023-07-31T12:25:39.000Z,1001.5
2023-07-31T12:26:55.000Z,1001.5
2023-07-31T12:29:27.000Z,1001.6
2023-07-31T12:31:59.000Z,1001.6
2023-07-31T12:33:15.000Z,1001.5
2023-07-31T12:34:32.000Z,1001.6
2023-07-31T12:35:48.000Z,1001.6
2023-07-31T12:37:04.000Z,1001.5
2023-07-31T12:38:19.000Z,1001.5
2023-07-31T12:39:35.000Z,1001.5
2023-07-31T12:40:51.000Z,1001.6
2023-07-31T12:42:08.000Z,1001.5
2023-07-31T12:43:24.000Z,1001.5
2023-07-31T12:44:40.000Z,1001.5
2023-07-31T12:45:56.000Z,1001.4
2023-07-31T12:47:12.000Z,1001.5
2023-07-31T12:48:28.000Z,1001.5
2023-07-31T12:49:43.000Z,1001.5
2023-07-31T12:50:59.000Z,1001.5
2023-07-31T12:52:15.000Z,1001.5
2023-07-31T12:53:31.000Z,1001.5
2023-07-31T12:54:47.000Z,1001.5
2023-07-31T12:56:03.000Z,1001.5
2023-07-31T12:57:19.000Z,1001.5
2023-07-31T12:58:35.000Z,1001.5
2023-07-31T12:59:52.000Z,1001.4
2023-07-31T13:01:08.000Z,1001.5
2023-07-31T13:02:24.000Z,1001.4
2023-07-31T13:03:40.000Z,1001.4
2023-07-31T13:04:56.000Z,1001.4
2023-07-31T13:07:29.000Z,1001.4
2023-07-31T13:08:45.000Z,1001.4
2023-07-31T13:10:00.000Z,1001.4
2023-07-31T13:11:16.000Z,1001.4
2023-07-31T13:12:32.000Z,1001.4
2023-07-31T13:13:48.000Z,1001.4
2023-07-31T13:15:04.000Z,1001.3
2023-07-31T13:16:20.000Z,1001.3
2023-07-31T13:17:35.000Z,1001.2
2023-07-31T13:18:51.000Z,1001.3
2023-07-31T13:20:07.000Z,1001.2
2023-07-31T13:21:23.000Z,1001.2
2023-07-31T13:22:39.000Z,1001.3
2023-07-31T13:23:55.000Z,1001.2
2023-07-31T13:25:12.000Z,1001.3
2023-07-31T13:26:28.000Z,1001.2
2023-07-31T13:27:44.000Z,1001.2
2023-07-31T13:29:00.000Z,1001.2
2023-07-31T13:30:16.000Z,1001.2
2023-07-31T13:32:48.000Z,1001.2
2023-07-31T13:34:04.000Z,1001.2
2023-07-31T13:35:20.000Z,1001.2
2023-07-31T13:36:36.000Z,1001.2
2023-07-31T13:39:08.000Z,1001.2
2023-07-31T13:40:23.000Z,1001.2
2023-07-31T13:41:39.000Z,1001.1
2023-07-31T13:42:54.000Z,1001.1
2023-07-31T13:44:10.000Z,1001.1
2023-07-31T13:45:26.000Z,1001.1
2023-07-31T13:46:42.000Z,1001.1
2023-07-31T13:47:58.000Z,1001.1
2023-07-31T13:49:14.000Z,1001.1
2023-07-31T13:50:31.000Z,1001.1
2023-07-31T13:51:47.000Z,1001.1
2023-07-31T13:53:03.000Z,1001
2023-07-31T13:54:18.000Z,1000.9
2023-07-31T13:55:33.000Z,1000.9
2023-07-31T13:56:49.000Z,1000.9
2023-07-31T13:58:05.000Z,1000.9
2023-07-31T13:59:22.000Z,1000.9
2023-07-31T14:00:38.000Z,1001
2023-07-31T14:01:54.000Z,1001
2023-07-31T14:03:10.000Z,1000.9
2023-07-31T14:04:26.000Z,1000.8
2023-07-31T14:08:15.000Z,1000.8
2023-07-31T14:09:30.000Z,1000.8
2023-07-31T14:12:01.000Z,1000.8
2023-07-31T14:13:17.000Z,1000.8
2023-07-31T14:14:33.000Z,1000.8
2023-07-31T14:15:50.000Z,1000.8
2023-07-31T14:17:06.000Z,1000.9
2023-07-31T14:18:22.000Z,1000.9
2023-07-31T14:20:54.000Z,1001
2023-07-31T14:23:26.000Z,1001
2023-07-31T14:24:43.000Z,1001
2023-07-31T14:25:58.000Z,1001
2023-07-31T14:27:13.000Z,1000.9
2023-07-31T14:28:29.000Z,1000.9
2023-07-31T14:29:45.000Z,1000.9
2023-07-31T14:31:01.000Z,1000.9
2023-07-31T14:32:18.000Z,1000.8
2023-07-31T14:33:34.000Z,1000.8
2023-07-31T14:34:50.000Z,1000.8
2023-07-31T14:36:06.000Z,1000.8
2023-07-31T14:37:22.000Z,1000.8
2023-07-31T14:38:37.000Z,1000.8
2023-07-31T14:39:52.000Z,1000.8
2023-07-31T14:41:09.000Z,1000.8
2023-07-31T14:42:25.000Z,1000.8
2023-07-31T14:43:41.000Z,1000.8
2023-07-31T14:44:57.000Z,1000.8
2023-07-31T14:47:29.000Z,1000.7
2023-07-31T14:48:45.000Z,1000.8
2023-07-31T14:51:18.000Z,1000.8
2023-07-31T14:52:34.000Z,1000.7
2023-07-31T14:53:49.000Z,1000.7
2023-07-31T14:55:04.000Z,1000.7
2023-07-31T14:56:20.000Z,1000.6
2023-07-31T14:57:37.000Z,1000.7
2023-07-31T14:58:53.000Z,1000.7
2023-07-31T15:01:25.000Z,1000.7
2023-07-31T15:03:57.000Z,1000.6
2023-07-31T15:05:13.000Z,1000.7
2023-07-31T15:07:46.000Z,1000.8
2023-07-31T15:09:02.000Z,1000.8
2023-07-31T15:10:18.000Z,1000.8
2023-07-31T15:11:33.000Z,1000.8
2023-07-31T15:12:49.000Z,1000.7
2023-07-31T15:15:22.000Z,1000.6
2023-07-31T15:16:38.000Z,1000.5
2023-07-31T15:17:54.000Z,1000.5
2023-07-31T15:19:10.000Z,1000.5
2023-07-31T15:20:26.000Z,1000.4
2023-07-31T15:21:42.000Z,1000.5
2023-07-31T15:22:58.000Z,1000.4
2023-07-31T15:24:15.000Z,1000.4
2023-07-31T15:26:47.000Z,1000.3
2023-07-31T15:28:02.000Z,1000.2
2023-07-31T15:29:18.000Z,1000.2
2023-07-31T15:30:34.000Z,1000.2
2023-07-31T15:31:50.000Z,1000.2
2023-07-31T15:33:07.000Z,1000.3
2023-07-31T15:34:23.000Z,1000.3
2023-07-31T15:38:11.000Z,1000.3
2023-07-31T15:39:27.000Z,1000.3
2023-07-31T15:40:43.000Z,1000.3
2023-07-31T15:42:00.000Z,1000.3
2023-07-31T15:43:16.000Z,1000.3
2023-07-31T15:45:47.000Z,1000.4
2023-07-31T15:47:03.000Z,1000.5
2023-07-31T15:49:36.000Z,1000.5
2023-07-31T15:50:52.000Z,1000.5
2023-07-31T15:53:24.000Z,1000.5
2023-07-31T15:54:40.000Z,1000.5
2023-07-31T15:55:56.000Z,1000.5
2023-07-31T15:57:12.000Z,1000.5
2023-07-31T15:59:45.000Z,1000.5
2023-07-31T16:01:00.000Z,1000.5
2023-07-31T16:02:16.000Z,1000.5
2023-07-31T16:06:03.000Z,1000.4
2023-07-31T16:08:35.000Z,1000.3
2023-07-31T16:09:50.000Z,1000.3
2023-07-31T16:11:05.000Z,1000.3
2023-07-31T16:12:21.000Z,1000.3
2023-07-31T16:13:37.000Z,1000.2
2023-07-31T16:14:54.000Z,1000.2
2023-07-31T16:16:10.000Z,1000.2
2023-07-31T16:17:26.000Z,1000.2
2023-07-31T16:18:42.000Z,1000.1
2023-07-31T16:19:58.000Z,1000.1
2023-07-31T16:21:14.000Z,1000.1
2023-07-31T16:22:29.000Z,1000
2023-07-31T16:23:45.000Z,1000.1
2023-07-31T16:25:01.000Z,1000.1
2023-07-31T16:26:17.000Z,1000.1
2023-07-31T16:27:33.000Z,1000.1
2023-07-31T16:28:49.000Z,1000.1
2023-07-31T16:30:05.000Z,1000
2023-07-31T16:31:21.000Z,1000.1
2023-07-31T16:32:38.000Z,1000.1
2023-07-31T16:33:54.000Z,1000.1
2023-07-31T16:35:09.000Z,1000.1
2023-07-31T16:36:24.000Z,1000
2023-07-31T16:37:40.000Z,1000.1
2023-07-31T16:38:56.000Z,1000
2023-07-31T16:40:13.000Z,1000.1
2023-07-31T16:42:45.000Z,1000
2023-07-31T16:44:01.000Z,1000
2023-07-31T16:45:17.000Z,999.9
2023-07-31T16:46:33.000Z,1000
2023-07-31T16:49:06.000Z,1000
2023-07-31T16:50:21.000Z,999.9
2023-07-31T16:51:36.000Z,999.9
2023-07-31T16:52:52.000Z,999.9
2023-07-31T16:54:08.000Z,1000
2023-07-31T16:55:24.000Z,999.9
2023-07-31T16:56:41.000Z,999.9
2023-07-31T16:57:57.000Z,999.9
2023-07-31T16:59:13.000Z,999.8
2023-07-31T17:00:29.000Z,999.8
2023-07-31T17:01:45.000Z,999.8
2023-07-31T17:03:00.000Z,999.8
2023-07-31T17:04:15.000Z,999.8
2023-07-31T17:06:48.000Z,999.8
2023-07-31T17:08:04.000Z,999.9
2023-07-31T17:09:20.000Z,999.8
2023-07-31T17:10:36.000Z,999.8
2023-07-31T17:11:52.000Z,999.8
2023-07-31T17:13:08.000Z,999.8
2023-07-31T17:14:25.000Z,999.8
2023-07-31T17:15:41.000Z,999.9
2023-07-31T17:16:57.000Z,999.8
2023-07-31T17:18:13.000Z,999.7
2023-07-31T17:19:29.000Z,999.7
2023-07-31T17:20:44.000Z,999.7
2023-07-31T17:22:01.000Z,999.6
2023-07-31T17:23:17.000Z,999.7
2023-07-31T17:24:33.000Z,999.7
2023-07-31T17:25:49.000Z,999.7
2023-07-31T17:27:05.000Z,999.8
2023-07-31T17:28:21.000Z,999.6
2023-07-31T17:29:37.000Z,999.7
2023-07-31T17:30:53.000Z,999.6
2023-07-31T17:32:09.000Z,999.6
2023-07-31T17:33:25.000Z,999.6
2023-07-31T17:34:41.000Z,999.6
2023-07-31T17:35:57.000Z,999.6
2023-07-31T17:37:13.000Z,999.6
2023-07-31T17:38:30.000Z,999.6
2023-07-31T17:39:46.000Z,999.6
2023-07-31T17:41:02.000Z,999.5
2023-07-31T17:43:34.000Z,999.6
2023-07-31T17:44:50.000Z,999.7
2023-07-31T17:46:06.000Z,999.6
2023-07-31T17:47:23.000Z,999.6
2023-07-31T17:49:54.000Z,999.7
2023-07-31T17:51:09.000Z,999.6